Time;durP1;ratioP1;P1;durP2;ratioP2;P2;SDS_P1;SDS_P2;PMS_P1;PMS_P2;Temp;Humidity;BMP_temperature;BMP_pressure;BME280_temperature;BME280_humidity;BME280_pressure;Samples;Min_cycle;Max_cycle;Signal;HPM_P1;HPM_P2
2022/10/26 00:01:21;;;;;;;6.15;4.07;;;7.80;99.90;;;;;;5075850;28;20203;-73
2022/10/26 00:03:47;;;;;;;5.57;3.97;;;7.80;99.90;;;;;;5076629;28;20183;-73
2022/10/26 00:06:18;;;;;;;5.95;4.07;;;7.90;99.90;;;;;;5076904;28;20183;-73
2022/10/26 00:08:44;;;;;;;10.07;4.85;;;7.80;99.90;;;;;;5075847;28;20650;-73
2022/10/26 00:11:11;;;;;;;8.23;4.20;;;7.80;99.90;;;;;;5094017;28;20183;-73
2022/10/26 00:13:37;;;;;;;9.68;4.30;;;7.90;99.90;;;;;;5093938;28;20208;-73
2022/10/26 00:16:14;;;;;;;7.63;4.13;;;7.90;99.90;;;;;;5075708;28;20215;-73
2022/10/26 00:18:40;;;;;;;5.68;3.45;;;8.00;99.90;;;;;;5075900;28;20676;-73
2022/10/26 00:21:08;;;;;;;7.28;3.50;;;8.00;99.90;;;;;;5075789;28;20215;-73
2022/10/26 00:23:33;;;;;;;4.95;3.30;;;8.00;99.90;;;;;;5075874;28;20720;-73
2022/10/26 00:25:59;;;;;;;5.65;3.45;;;8.00;99.90;;;;;;5075819;28;20212;-73
2022/10/26 00:28:25;;;;;;;7.90;3.95;;;8.00;99.90;;;;;;5076193;28;20237;-73
2022/10/26 00:30:51;;;;;;;7.40;3.20;;;8.00;99.90;;;;;;5075481;28;20176;-73
2022/10/26 00:33:17;;;;;;;11.63;3.10;;;8.10;99.90;;;;;;5075946;28;20184;-73
2022/10/26 00:35:48;;;;;;;7.40;2.95;;;8.10;99.90;;;;;;5075778;28;20187;-73
2022/10/26 00:38:13;;;;;;;4.50;2.63;;;8.10;99.90;;;;;;5075448;28;20206;-73
2022/10/26 00:40:39;;;;;;;10.50;3.10;;;8.10;99.90;;;;;;5093415;28;20204;-73
2022/10/26 00:43:20;;;;;;;7.05;2.90;;;8.00;99.90;;;;;;5075553;28;20188;-73
2022/10/26 00:45:48;;;;;;;7.90;2.70;;;8.00;99.90;;;;;;5075647;28;20259;-73
2022/10/26 00:48:33;;;;;;;5.00;2.90;;;8.00;99.90;;;;;;5075170;28;20201;-73
2022/10/26 00:51:01;;;;;;;4.75;3.40;;;7.90;99.90;;;;;;5075337;28;20256;-73
2022/10/26 00:53:28;;;;;;;6.25;3.78;;;8.00;99.90;;;;;;5079805;28;20204;-73
2022/10/26 00:55:54;;;;;;;6.25;3.53;;;7.90;99.90;;;;;;5079250;28;20207;-73
2022/10/26 00:58:21;;;;;;;4.18;3.88;;;7.90;99.90;;;;;;5097256;28;20199;-73
2022/10/26 01:00:48;;;;;;;5.57;4.00;;;7.90;99.90;;;;;;5079168;28;20204;-73
2022/10/26 01:03:15;;;;;;;5.38;4.40;;;7.80;99.90;;;;;;5079478;28;20230;-73
2022/10/26 01:05:43;;;;;;;7.95;4.32;;;7.90;99.90;;;;;;5097506;28;20202;-73
2022/10/26 01:08:09;;;;;;;4.65;4.25;;;7.80;99.90;;;;;;5078973;28;20188;-73
2022/10/26 01:10:37;;;;;;;7.85;4.63;;;7.80;99.90;;;;;;5079387;28;20243;-73
2022/10/26 01:13:03;;;;;;;5.10;4.10;;;7.80;99.90;;;;;;5097137;28;20241;-73
2022/10/26 01:15:44;;;;;;;5.38;3.90;;;7.80;99.90;;;;;;5097401;28;20652;-73
2022/10/26 01:18:20;;;;;;;7.20;4.22;;;7.80;99.90;;;;;;5078939;28;20218;-73
2022/10/26 01:20:58;;;;;;;6.93;4.10;;;7.80;99.90;;;;;;5078775;28;20204;-73
2022/10/26 01:23:32;;;;;;;6.55;4.13;;;7.90;99.90;;;;;;5097752;28;20192;-73
2022/10/26 01:26:16;;;;;;;7.47;3.58;;;7.90;99.90;;;;;;5078723;28;20196;-73
2022/10/26 01:29:00;;;;;;;5.40;3.63;;;8.00;99.90;;;;;;5096781;28;20193;-73
2022/10/26 01:31:38;;;;;;;4.20;3.70;;;8.00;99.90;;;;;;5078712;28;20165;-73
2022/10/26 01:34:23;;;;;;;3.92;3.53;;;8.00;99.90;;;;;;5096766;28;20165;-73
2022/10/26 01:36:55;;;;;;;8.23;3.47;;;8.00;99.90;;;;;;5078598;28;20196;-74
2022/10/26 01:39:33;;;;;;;5.57;3.60;;;7.90;99.90;;;;;;5079357;28;20208;-74
2022/10/26 01:42:03;;;;;;;4.03;3.50;;;7.90;99.90;;;;;;5078455;28;20198;-74
2022/10/26 01:44:46;;;;;;;5.30;3.20;;;7.90;99.90;;;;;;5078452;28;20598;-74
2022/10/26 01:47:14;;;;;;;9.05;3.17;;;7.90;99.90;;;;;;5096429;28;20197;-74
2022/10/26 01:49:46;;;;;;;8.13;3.47;;;8.00;99.90;;;;;;5096720;28;20272;-74
2022/10/26 01:52:11;;;;;;;7.13;3.53;;;8.00;99.90;;;;;;5096432;28;20687;-74
2022/10/26 01:54:37;;;;;;;7.10;3.08;;;7.90;99.90;;;;;;5079018;28;20208;-74
2022/10/26 01:57:13;;;;;;;3.95;2.80;;;8.00;99.90;;;;;;5078099;28;20207;-74
2022/10/26 02:00:04;;;;;;;4.20;3.17;;;8.00;99.90;;;;;;5096132;28;20200;-74
2022/10/26 02:02:50;;;;;;;4.63;3.13;;;7.90;99.90;;;;;;5079224;28;20169;-74
2022/10/26 02:05:34;;;;;;;4.40;3.10;;;7.90;99.90;;;;;;5095955;28;20631;-74
2022/10/26 02:08:05;;;;;;;5.32;3.13;;;7.80;99.90;;;;;;5077956;28;20648;-74
2022/10/26 02:10:52;;;;;;;6.50;3.13;;;7.80;99.90;;;;;;5078789;28;20181;-74
2022/10/26 02:13:29;;;;;;;6.32;3.00;;;7.90;99.90;;;;;;5077827;28;20173;-74
2022/10/26 02:16:00;;;;;;;3.28;2.90;;;7.90;99.90;;;;;;5078718;28;20169;-74
2022/10/26 02:19:04;;;;;;;8.95;2.88;;;7.90;99.90;;;;;;5078452;28;20592;-74
2022/10/26 02:21:46;;;;;;;3.45;3.15;;;7.90;99.90;;;;;;5036867;28;20288;-74
2022/10/26 02:24:13;;;;;;;4.05;3.53;;;7.90;99.90;;;;;;5074807;28;20189;-74
2022/10/26 02:26:40;;;;;;;5.05;3.35;;;7.90;99.90;;;;;;5077789;28;20220;-74
2022/10/26 02:29:10;;;;;;;3.40;3.10;;;7.90;99.90;;;;;;5077595;28;20184;-74
2022/10/26 02:31:37;;;;;;;4.32;3.90;;;7.90;99.90;;;;;;5077504;28;20184;-74
2022/10/26 02:34:07;;;;;;;9.30;3.40;;;7.90;99.90;;;;;;5095791;28;20181;-74
2022/10/26 02:36:36;;;;;;;6.47;3.00;;;7.90;99.90;;;;;;5077547;28;20226;-74
2022/10/26 02:39:05;;;;;;;5.10;3.10;;;7.90;99.90;;;;;;5077870;28;20176;-74
2022/10/26 02:41:32;;;;;;;8.40;3.03;;;8.00;99.90;;;;;;5077310;28;20169;-74
2022/10/26 02:44:14;;;;;;;11.73;3.25;;;8.00;99.90;;;;;;5095665;28;20169;-74
2022/10/26 02:46:40;;;;;;;6.68;3.33;;;7.90;99.90;;;;;;5095391;28;20283;-74
2022/10/26 02:49:06;;;;;;;5.75;3.13;;;7.90;99.90;;;;;;5077508;28;20184;-74
2022/10/26 02:51:49;;;;;;;5.30;2.90;;;8.00;99.90;;;;;;5077168;28;20173;-74
2022/10/26 02:54:35;;;;;;;4.53;2.90;;;8.10;99.90;;;;;;5077728;28;20169;-74
2022/10/26 02:57:09;;;;;;;3.58;3.25;;;8.10;99.90;;;;;;5076964;28;20233;-74
2022/10/26 02:59:37;;;;;;;5.43;3.33;;;8.20;99.90;;;;;;5095243;28;20197;-74
2022/10/26 03:02:04;;;;;;;5.28;3.53;;;8.20;99.90;;;;;;5078067;28;20298;-74
2022/10/26 03:04:31;;;;;;;4.13;3.25;;;8.20;99.90;;;;;;5095265;28;20169;-74
2022/10/26 03:06:57;;;;;;;7.80;3.40;;;8.20;99.90;;;;;;5095051;28;20280;-74
2022/10/26 03:09:23;;;;;;;8.52;3.50;;;8.20;99.90;;;;;;5095159;28;20552;-74
2022/10/26 03:11:48;;;;;;;6.50;3.30;;;8.30;99.90;;;;;;5076680;28;20180;-74
2022/10/26 03:14:14;;;;;;;5.70;3.50;;;8.20;99.90;;;;;;5076641;28;20203;-74
2022/10/26 03:16:40;;;;;;;6.35;3.05;;;8.20;99.90;;;;;;5076864;28;20204;-74
2022/10/26 03:19:06;;;;;;;7.43;3.50;;;8.30;99.90;;;;;;5076816;28;20180;-74
2022/10/26 03:21:31;;;;;;;4.93;3.03;;;8.30;99.90;;;;;;5094904;28;20218;-74
2022/10/26 03:23:57;;;;;;;8.45;3.03;;;8.40;99.90;;;;;;5076829;28;20230;-74
2022/10/26 03:26:22;;;;;;;8.93;3.30;;;8.40;99.90;;;;;;5076518;28;20246;-74
2022/10/26 03:28:48;;;;;;;35.67;28.92;;;8.40;99.90;;;;;;5094458;28;20172;-74
2022/10/26 03:31:14;;;;;;;10.77;6.60;;;8.40;99.90;;;;;;5076311;28;20215;-74
2022/10/26 03:33:39;;;;;;;11.00;6.20;;;8.40;99.90;;;;;;5076301;28;20184;-74
2022/10/26 03:36:05;;;;;;;6.45;4.53;;;8.40;99.90;;;;;;5094629;28;20181;-74
2022/10/26 03:38:31;;;;;;;10.45;4.18;;;8.40;99.90;;;;;;5076340;28;20610;-74
2022/10/26 03:40:56;;;;;;;3.70;3.40;;;8.30;99.90;;;;;;5076020;28;20212;-74
2022/10/26 03:43:22;;;;;;;10.55;3.80;;;8.30;99.90;;;;;;5076120;28;20173;-74
2022/10/26 03:45:48;;;;;;;8.45;4.40;;;8.30;99.90;;;;;;5076174;28;20546;-74
2022/10/26 03:48:13;;;;;;;5.50;4.32;;;8.40;99.90;;;;;;5076079;28;20304;-74
2022/10/26 03:50:39;;;;;;;8.27;4.07;;;8.40;99.90;;;;;;5076338;28;20176;-74
2022/10/26 03:53:05;;;;;;;7.85;4.43;;;8.50;99.90;;;;;;5076369;28;20187;-74
2022/10/26 03:55:30;;;;;;;7.47;4.60;;;8.50;99.90;;;;;;5094303;28;20205;-74
2022/10/26 03:57:56;;;;;;;11.57;6.53;;;8.50;99.90;;;;;;5076245;28;20223;-74
2022/10/26 04:00:21;;;;;;;7.88;5.40;;;8.50;99.90;;;;;;5094561;28;20205;-74
2022/10/26 04:02:54;;;;;;;7.82;3.55;;;8.50;99.90;;;;;;5076805;28;20173;-74
2022/10/26 04:05:20;;;;;;;6.72;3.50;;;8.50;99.90;;;;;;5094506;28;20168;-74
2022/10/26 04:07:57;;;;;;;10.10;5.93;;;8.50;99.90;;;;;;5076690;28;20197;-74
2022/10/26 04:10:25;;;;;;;10.43;4.70;;;8.50;99.90;;;;;;5075953;28;20180;-74
2022/10/26 04:12:51;;;;;;;12.15;7.85;;;8.50;99.90;;;;;;5094128;28;20169;-74
2022/10/26 04:15:17;;;;;;;10.75;4.80;;;8.50;99.90;;;;;;5076757;28;20180;-74
2022/10/26 04:17:43;;;;;;;11.27;5.20;;;8.50;99.90;;;;;;5094059;28;20663;-74
2022/10/26 04:20:09;;;;;;;11.13;7.68;;;8.60;99.90;;;;;;5076128;28;20207;-74
2022/10/26 04:22:35;;;;;;;7.65;4.35;;;8.70;99.90;;;;;;5075834;28;20176;-75
2022/10/26 04:25:02;;;;;;;8.55;4.45;;;8.50;99.90;;;;;;5076401;28;20169;-75
2022/10/26 04:27:27;;;;;;;13.70;4.30;;;8.60;99.90;;;;;;5094052;28;20200;-75
2022/10/26 04:29:53;;;;;;;10.30;4.28;;;8.50;99.90;;;;;;5076439;28;20181;-75
2022/10/26 04:32:18;;;;;;;9.52;5.40;;;8.50;99.90;;;;;;5076194;28;20180;-75
2022/10/26 04:34:44;;;;;;;8.20;5.82;;;8.50;99.90;;;;;;5075777;28;20271;-75
2022/10/26 04:37:10;;;;;;;5.22;4.20;;;8.50;99.90;;;;;;5075689;28;20737;-75
2022/10/26 04:39:35;;;;;;;7.55;3.88;;;8.50;99.90;;;;;;5075696;28;20209;-75
2022/10/26 04:42:01;;;;;;;10.77;4.03;;;8.50;99.90;;;;;;5076125;28;20169;-75
2022/10/26 04:44:27;;;;;;;8.55;3.60;;;8.50;99.90;;;;;;5076085;28;20172;-75
2022/10/26 04:46:52;;;;;;;9.00;4.70;;;8.60;99.90;;;;;;5076350;28;20193;-74
2022/10/26 04:49:18;;;;;;;9.63;7.07;;;8.60;99.90;;;;;;5076407;28;20656;-76
2022/10/26 04:51:43;;;;;;;6.57;5.53;;;8.60;99.90;;;;;;5094484;28;20663;-75
2022/10/26 04:54:09;;;;;;;10.18;5.22;;;8.60;99.90;;;;;;5077274;28;20179;-75
2022/10/26 04:56:35;;;;;;;6.28;4.40;;;8.60;99.90;;;;;;5076933;28;20287;-74
2022/10/26 04:59:00;;;;;;;6.55;4.07;;;8.70;99.90;;;;;;5094714;28;20204;-75
2022/10/26 05:01:26;;;;;;;5.88;4.72;;;8.70;99.90;;;;;;5076520;28;20253;-75
2022/10/26 05:03:52;;;;;;;7.30;4.20;;;8.70;99.90;;;;;;5076214;28;20183;-75
2022/10/26 05:06:21;;;;;;;10.55;4.72;;;8.80;99.90;;;;;;5076094;28;20632;-75
2022/10/26 05:08:47;;;;;;;9.50;5.32;;;8.80;99.90;;;;;;5076253;28;20200;-75
2022/10/26 05:11:13;;;;;;;7.53;4.68;;;8.90;99.90;;;;;;5075591;28;20181;-74
2022/10/26 05:13:38;;;;;;;9.02;4.82;;;8.80;99.90;;;;;;5076016;28;20180;-74
2022/10/26 05:16:04;;;;;;;7.15;5.28;;;8.80;99.90;;;;;;5076493;28;20212;-74
2022/10/26 05:18:30;;;;;;;14.32;4.45;;;8.90;99.90;;;;;;5075652;28;20269;-74
2022/10/26 05:20:55;;;;;;;7.80;4.40;;;8.80;99.90;;;;;;5075376;28;20223;-74
2022/10/26 05:23:21;;;;;;;5.75;4.65;;;8.80;99.90;;;;;;5093793;28;20177;-74
2022/10/26 05:25:47;;;;;;;8.65;4.68;;;8.90;99.90;;;;;;5075925;28;20243;-74
2022/10/26 05:28:17;;;;;;;12.25;4.60;;;8.90;99.90;;;;;;5075642;28;20201;-75
2022/10/26 05:30:44;;;;;;;22.70;4.50;;;8.80;99.90;;;;;;5075842;28;20184;-75
2022/10/26 05:33:12;;;;;;;13.85;4.57;;;8.90;99.90;;;;;;5093872;28;20169;-75
2022/10/26 05:35:38;;;;;;;16.05;4.60;;;8.90;99.90;;;;;;5075379;28;20652;-75
2022/10/26 05:38:12;;;;;;;12.13;4.32;;;8.80;99.90;;;;;;5075608;28;20197;-74
2022/10/26 05:40:45;;;;;;;8.73;4.80;;;8.80;99.90;;;;;;5078526;28;20625;-74
2022/10/26 05:47:11;;;;;;;10.15;4.90;;;8.90;99.90;;;;;;5096987;28;20256;-75
2022/10/26 05:49:52;;;;;;;14.10;5.80;;;8.90;99.90;;;;;;5079496;28;20173;-74
2022/10/26 05:52:40;;;;;;;21.88;7.97;;;8.90;99.90;;;;;;5078593;28;20544;-73
2022/10/26 05:55:07;;;;;;;20.48;8.40;;;8.90;99.90;;;;;;5078472;28;20180;-73
2022/10/26 05:57:33;;;;;;;10.68;6.60;;;8.90;99.90;;;;;;5079232;28;20273;-73
2022/10/26 05:59:59;;;;;;;19.33;7.10;;;8.90;99.90;;;;;;5078181;28;20243;-73
2022/10/26 06:03:21;;;;;;;18.50;6.53;;;8.90;99.90;;;;;;5078640;28;20649;-73
2022/10/26 06:05:55;;;;;;;14.82;8.65;;;8.90;99.90;;;;;;5093638;28;20196;-75
2022/10/26 06:08:23;;;;;;;14.68;7.95;;;9.00;99.90;;;;;;5078185;28;20603;-75
2022/10/26 06:10:49;;;;;;;17.70;12.40;;;9.00;99.90;;;;;;5078149;28;20187;-74
2022/10/26 06:13:15;;;;;;;17.25;14.25;;;9.00;99.90;;;;;;5077667;28;20181;-75
2022/10/26 06:16:17;;;;;;;10.75;7.78;;;9.00;99.90;;;;;;5078081;28;20184;-75
2022/10/26 06:19:08;;;;;;;15.48;8.52;;;8.90;99.90;;;;;;5077449;28;20196;-75
2022/10/26 06:22:01;;;;;;;9.57;8.57;;;8.90;99.90;;;;;;5057978;28;20217;-75
2022/10/26 06:24:40;;;;;;;11.88;8.00;;;8.90;99.90;;;;;;5062961;28;20213;-73
2022/10/26 06:27:15;;;;;;;10.90;6.13;;;9.00;99.90;;;;;;5095737;28;20222;-73
2022/10/26 06:30:04;;;;;;;11.38;6.20;;;9.10;99.90;;;;;;5095998;28;20164;-73
2022/10/26 06:32:30;;;;;;;10.50;6.53;;;9.20;99.90;;;;;;5095426;28;20157;-75
2022/10/26 06:35:22;;;;;;;9.00;6.72;;;9.20;99.90;;;;;;5077411;28;20173;-74
2022/10/26 06:37:49;;;;;;;9.25;5.47;;;9.20;99.90;;;;;;5095565;28;20185;-74
2022/10/26 06:40:16;;;;;;;9.45;5.20;;;9.30;99.90;;;;;;5077476;28;20216;-74
2022/10/26 06:42:42;;;;;;;7.30;4.40;;;9.30;99.90;;;;;;5077654;28;20199;-74
2022/10/26 06:45:15;;;;;;;5.55;4.10;;;9.30;99.90;;;;;;5077059;28;20644;-74
2022/10/26 06:47:47;;;;;;;7.47;4.60;;;9.40;99.90;;;;;;5076864;28;20197;-74
2022/10/26 06:50:24;;;;;;;10.50;4.55;;;9.40;99.90;;;;;;5075558;28;20169;-74
2022/10/26 06:53:18;;;;;;;5.35;4.30;;;9.50;99.90;;;;;;5095094;28;20168;-74
2022/10/26 06:55:48;;;;;;;12.25;5.47;;;9.50;99.90;;;;;;5094799;28;20168;-74
2022/10/26 06:58:19;;;;;;;18.08;6.45;;;9.60;99.90;;;;;;5076418;28;20746;-74
2022/10/26 07:00:48;;;;;;;9.85;4.80;;;9.60;99.90;;;;;;5094784;28;20209;-74
2022/10/26 07:03:14;;;;;;;13.95;4.70;;;9.70;99.90;;;;;;5076944;28;20206;-74
2022/10/26 07:05:40;;;;;;;10.95;4.78;;;9.70;99.90;;;;;;5076943;28;20172;-75
2022/10/26 07:08:06;;;;;;;10.32;6.68;;;9.80;99.90;;;;;;5076920;28;20250;-74
2022/10/26 07:10:33;;;;;;;12.88;7.28;;;9.90;99.90;;;;;;5077796;28;20173;-73
2022/10/26 07:12:59;;;;;;;11.95;9.48;;;9.90;99.90;;;;;;5077149;28;20696;-73
2022/10/26 07:15:25;;;;;;;10.63;9.50;;;10.00;99.90;;;;;;5095120;28;20185;-73
2022/10/26 07:17:50;;;;;;;16.90;10.73;;;10.10;99.90;;;;;;5094968;28;20246;-73
2022/10/26 07:20:20;;;;;;;11.90;9.18;;;10.10;99.90;;;;;;5076864;28;20721;-74
2022/10/26 07:22:54;;;;;;;10.80;8.68;;;10.20;99.90;;;;;;5094933;28;20173;-73
2022/10/26 07:25:20;;;;;;;10.63;8.40;;;10.30;99.90;;;;;;5094749;28;20195;-73
2022/10/26 07:27:46;;;;;;;8.30;6.00;;;10.40;99.90;;;;;;5076508;28;20224;-75
2022/10/26 07:30:12;;;;;;;8.18;6.20;;;10.50;99.90;;;;;;5095349;28;20176;-73
2022/10/26 07:32:37;;;;;;;9.75;5.78;;;10.60;99.90;;;;;;5077286;28;20559;-73
2022/10/26 07:35:03;;;;;;;8.38;5.75;;;10.70;99.90;;;;;;5076888;28;20651;-73
2022/10/26 07:37:29;;;;;;;6.75;5.28;;;10.80;99.90;;;;;;5094353;28;20193;-75
2022/10/26 07:39:55;;;;;;;10.05;5.72;;;10.90;99.90;;;;;;5076443;28;20212;-75
2022/10/26 07:42:20;;;;;;;6.20;5.35;;;10.90;99.90;;;;;;5076208;28;20168;-76
2022/10/26 07:44:46;;;;;;;7.78;4.88;;;10.90;99.90;;;;;;5076961;28;20173;-76
2022/10/26 07:47:11;;;;;;;9.00;5.30;;;11.00;99.90;;;;;;5076346;28;20188;-75
2022/10/26 07:49:37;;;;;;;6.88;5.20;;;10.90;99.90;;;;;;5094500;28;20179;-76
2022/10/26 07:52:03;;;;;;;7.75;4.57;;;10.90;99.90;;;;;;5094163;28;20180;-76
2022/10/26 07:54:28;;;;;;;8.38;5.10;;;10.90;99.90;;;;;;5094271;28;20181;-76
2022/10/26 07:56:54;;;;;;;16.80;5.10;;;10.80;99.90;;;;;;5094065;28;20573;-75
2022/10/26 07:59:21;;;;;;;15.07;5.35;;;10.80;99.90;;;;;;5075873;28;20730;-75
2022/10/26 08:01:47;;;;;;;10.07;4.53;;;10.80;99.90;;;;;;5075240;28;20260;-74
2022/10/26 08:04:13;;;;;;;10.73;4.38;;;10.80;99.90;;;;;;5076222;28;20216;-73
2022/10/26 08:06:39;;;;;;;9.20;4.80;;;10.90;99.90;;;;;;5075819;28;20693;-73
2022/10/26 08:09:05;;;;;;;8.75;4.30;;;11.00;99.90;;;;;;5076301;28;20260;-74
2022/10/26 08:11:30;;;;;;;31.13;5.10;;;11.10;99.90;;;;;;5075725;28;20667;-74
2022/10/26 08:13:56;;;;;;;34.92;5.53;;;11.20;99.90;;;;;;5075858;28;20663;-76
2022/10/26 08:16:22;;;;;;;21.50;5.03;;;11.20;99.90;;;;;;5075948;28;20218;-75
2022/10/26 08:18:48;;;;;;;22.17;4.93;;;11.40;99.90;;;;;;5075992;28;20188;-74
2022/10/26 08:21:16;;;;;;;15.20;5.28;;;11.50;99.90;;;;;;5075896;28;20312;-74
2022/10/26 08:23:42;;;;;;;8.32;4.05;;;11.70;99.90;;;;;;5075677;28;20172;-74
2022/10/26 08:26:10;;;;;;;7.40;3.40;;;11.80;99.90;;;;;;5093674;28;20271;-74
2022/10/26 08:28:36;;;;;;;5.85;3.60;;;12.00;99.90;;;;;;5093409;28;20227;-74
2022/10/26 08:31:02;;;;;;;6.18;3.38;;;12.00;99.90;;;;;;5093309;28;20177;-75
2022/10/26 08:33:28;;;;;;;5.22;3.30;;;12.10;99.90;;;;;;5075129;28;20204;-75
2022/10/26 08:35:59;;;;;;;13.43;3.92;;;12.10;99.90;;;;;;5071123;28;20184;-75
2022/10/26 08:38:25;;;;;;;10.90;3.72;;;12.20;99.90;;;;;;5055050;28;20684;-75
2022/10/26 08:40:53;;;;;;;5.00;3.60;;;12.30;99.90;;;;;;5063628;28;20384;-75
2022/10/26 08:43:28;;;;;;;7.70;3.60;;;12.40;99.90;;;;;;5075291;28;20181;-75
2022/10/26 08:46:18;;;;;;;6.47;3.60;;;12.70;99.90;;;;;;5075664;28;20196;-75
2022/10/26 08:48:49;;;;;;;9.18;3.63;;;12.80;99.90;;;;;;5093565;28;20280;-75
2022/10/26 08:51:46;;;;;;;7.57;3.80;;;12.70;99.90;;;;;;5093890;28;20173;-74
2022/10/26 08:54:37;;;;;;;20.48;4.15;;;12.60;99.90;;;;;;5066684;28;20185;-75
2022/10/26 08:57:23;;;;;;;8.93;3.53;;;12.50;99.90;;;;;;5075540;28;20231;-74
2022/10/26 09:00:11;;;;;;;9.55;4.20;;;12.40;99.90;;;;;;5064507;28;20201;-74
2022/10/26 09:02:37;;;;;;;7.13;3.97;;;12.30;99.90;;;;;;5072121;28;20169;-73
2022/10/26 09:05:04;;;;;;;8.05;4.20;;;12.20;99.90;;;;;;5075214;28;20532;-73
2022/10/26 09:07:36;;;;;;;7.95;4.05;;;12.10;99.90;;;;;;5076311;28;20200;-75
2022/10/26 09:10:17;;;;;;;4.97;4.47;;;12.10;99.90;;;;;;5075027;28;20631;-75
2022/10/26 09:13:10;;;;;;;7.70;5.38;;;12.10;99.90;;;;;;5094446;28;20244;-75
2022/10/26 09:16:10;;;;;;;12.27;10.40;;;12.20;99.90;;;;;;5079061;28;20284;-75
2022/10/26 09:18:54;;;;;;;13.63;6.50;;;12.30;99.90;;;;;;5064444;28;20683;-75
2022/10/26 09:21:31;;;;;;;7.25;4.68;;;12.50;99.90;;;;;;5078999;28;20215;-75
2022/10/26 09:24:02;;;;;;;11.43;4.30;;;12.60;99.90;;;;;;5078988;28;20161;-75
2022/10/26 09:26:32;;;;;;;6.32;3.95;;;12.80;99.90;;;;;;5079111;28;20195;-75
2022/10/26 09:29:05;;;;;;;35.05;4.28;;;12.80;99.90;;;;;;5096852;28;20169;-75
2022/10/26 09:31:38;;;;;;;6.88;3.60;;;13.00;99.90;;;;;;5078318;28;20180;-74
2022/10/26 09:34:05;;;;;;;8.00;3.60;;;13.20;99.90;;;;;;5058437;28;20212;-74
2022/10/26 09:36:32;;;;;;;33.38;16.75;;;13.30;99.90;;;;;;5086869;28;20181;-73
2022/10/26 09:39:13;;;;;;;16.65;9.18;;;13.30;99.90;;;;;;5078302;28;20172;-73
2022/10/26 09:41:54;;;;;;;41.85;18.10;;;13.30;99.90;;;;;;5078224;28;20184;-73
2022/10/26 09:44:43;;;;;;;18.77;10.95;;;13.30;99.90;;;;;;5096771;28;20240;-73
2022/10/26 09:47:23;;;;;;;7.35;4.00;;;13.50;99.90;;;;;;5078390;28;20701;-75
2022/10/26 09:49:55;;;;;;;7.30;3.97;;;13.70;99.90;;;;;;5078207;28;20184;-76
2022/10/26 09:52:20;;;;;;;5.57;4.28;;;13.80;99.90;;;;;;5078343;28;20184;-76
2022/10/26 09:54:46;;;;;;;8.15;3.83;;;13.70;99.90;;;;;;5078175;28;20180;-75
2022/10/26 09:57:18;;;;;;;6.45;3.80;;;13.60;99.90;;;;;;5078159;28;20270;-75
2022/10/26 09:59:46;;;;;;;6.95;3.08;;;13.40;99.90;;;;;;5096452;28;20197;-73
2022/10/26 10:02:31;;;;;;;7.88;3.88;;;13.20;99.90;;;;;;5078129;28;20208;-74
2022/10/26 10:04:56;;;;;;;16.90;4.20;;;13.00;99.90;;;;;;5077908;28;20180;-73
2022/10/26 10:07:22;;;;;;;7.57;4.20;;;12.90;99.90;;;;;;5078049;28;20197;-73
2022/10/26 10:10:15;;;;;;;9.45;3.80;;;12.80;99.90;;;;;;5077845;28;20204;-73
2022/10/26 10:12:41;;;;;;;7.28;3.58;;;12.80;99.90;;;;;;5078595;28;20263;-73
2022/10/26 10:15:33;;;;;;;9.07;3.53;;;12.80;99.90;;;;;;5097135;28;20233;-73
2022/10/26 10:17:59;;;;;;;7.55;4.18;;;12.90;99.90;;;;;;5076717;28;20718;-74
2022/10/26 10:20:31;;;;;;;6.68;3.97;;;13.00;99.90;;;;;;5077416;28;20204;-74
2022/10/26 10:22:59;;;;;;;9.73;3.63;;;13.10;99.90;;;;;;5077708;28;20165;-74
2022/10/26 10:25:36;;;;;;;7.45;3.40;;;13.30;99.90;;;;;;5076757;28;20188;-74
2022/10/26 10:28:18;;;;;;;10.25;3.55;;;13.40;99.90;;;;;;5095274;28;20202;-74
2022/10/26 10:30:53;;;;;;;4.47;3.10;;;13.50;99.90;;;;;;5077796;28;20169;-73
2022/10/26 10:33:18;;;;;;;12.85;3.83;;;13.70;99.90;;;;;;5078125;28;20201;-74
2022/10/26 10:35:50;;;;;;;10.57;4.00;;;13.70;99.90;;;;;;5078353;28;20177;-74
2022/10/26 10:38:19;;;;;;;12.32;4.57;;;13.70;99.90;;;;;;5078191;28;20232;-74
2022/10/26 10:40:52;;;;;;;12.02;4.00;;;13.70;99.90;;;;;;5077768;28;20262;-73
2022/10/26 10:43:18;;;;;;;9.20;4.40;;;13.70;99.90;;;;;;5077842;28;20184;-73
2022/10/26 10:45:51;;;;;;;7.63;4.10;;;13.60;99.90;;;;;;5077695;28;20173;-74
2022/10/26 10:48:21;;;;;;;8.60;4.30;;;13.50;99.90;;;;;;5095081;28;20201;-74
2022/10/26 10:50:52;;;;;;;5.53;4.38;;;13.50;99.90;;;;;;5077130;28;20177;-73
2022/10/26 10:53:23;;;;;;;9.75;5.00;;;13.50;99.90;;;;;;5076778;28;20711;-73
2022/10/26 10:56:14;;;;;;;7.03;5.78;;;13.50;99.90;;;;;;5095048;28;20173;-73
2022/10/26 10:58:51;;;;;;;10.00;5.90;;;13.50;99.90;;;;;;5065897;28;20223;-73
2022/10/26 11:01:22;;;;;;;8.52;6.43;;;13.60;99.90;;;;;;5074659;28;20349;-73
2022/10/26 11:04:08;;;;;;;8.50;7.60;;;13.70;99.90;;;;;;5094704;28;20156;-73
2022/10/26 11:06:37;;;;;;;6.57;4.53;;;13.90;99.90;;;;;;5094808;28;20161;-73
2022/10/26 11:09:15;;;;;;;5.00;3.80;;;14.10;99.90;;;;;;5076880;28;20169;-73
2022/10/26 11:11:51;;;;;;;8.43;4.70;;;14.30;99.90;;;;;;5076622;28;20165;-73
2022/10/26 11:14:33;;;;;;;9.93;4.22;;;14.50;99.90;;;;;;5076290;28;20175;-74
2022/10/26 11:17:05;;;;;;;7.38;4.53;;;14.70;99.90;;;;;;5076629;28;20209;-74
2022/10/26 11:19:42;;;;;;;4.80;4.30;;;14.90;99.90;;;;;;5094520;28;20256;-75
2022/10/26 11:22:17;;;;;;;4.38;3.70;;;14.80;99.90;;;;;;5076866;28;20208;-73
2022/10/26 11:24:48;;;;;;;7.65;4.50;;;14.70;99.90;;;;;;5076863;28;20168;-73
2022/10/26 11:27:24;;;;;;;6.90;4.10;;;14.50;99.90;;;;;;5076146;28;20240;-74
2022/10/26 11:30:02;;;;;;;7.32;3.75;;;14.40;99.90;;;;;;5076574;28;20175;-73
2022/10/26 11:32:40;;;;;;;5.82;4.38;;;14.30;99.90;;;;;;5094086;28;20191;-73
2022/10/26 11:35:15;;;;;;;11.63;3.92;;;14.50;99.90;;;;;;5076284;28;20528;-75
2022/10/26 11:37:55;;;;;;;6.95;4.15;;;14.50;99.90;;;;;;5075324;28;20219;-73
2022/10/26 11:40:32;;;;;;;8.77;3.80;;;14.50;99.90;;;;;;5076141;28;20619;-73
2022/10/26 11:43:15;;;;;;;5.25;4.00;;;14.60;99.90;;;;;;5075535;28;20177;-73
2022/10/26 11:45:48;;;;;;;17.90;3.92;;;14.60;99.90;;;;;;5092767;28;20168;-74
2022/10/26 11:48:27;;;;;;;7.10;3.63;;;14.60;99.90;;;;;;5073755;28;20205;-74
2022/10/26 11:50:58;;;;;;;9.40;3.88;;;14.60;99.90;;;;;;5073952;28;20172;-74
2022/10/26 11:53:35;;;;;;;5.82;3.50;;;14.60;99.90;;;;;;5075064;28;20202;-74
2022/10/26 11:56:03;;;;;;;7.80;3.28;;;14.70;99.90;;;;;;5076304;28;20176;-73
2022/10/26 11:58:31;;;;;;;5.45;3.35;;;14.80;99.90;;;;;;5075514;28;20295;-74
2022/10/26 12:01:06;;;;;;;5.10;3.50;;;14.80;99.90;;;;;;5076113;28;20200;-73
2022/10/26 12:03:36;;;;;;;7.22;3.90;;;14.80;99.90;;;;;;5075462;28;20168;-75
2022/10/26 12:06:02;;;;;;;5.32;3.92;;;14.80;99.90;;;;;;5076082;28;20200;-74
2022/10/26 12:08:47;;;;;;;9.07;3.85;;;14.80;99.90;;;;;;5075630;28;20256;-73
2022/10/26 12:11:40;;;;;;;6.50;3.63;;;14.80;99.90;;;;;;5075637;28;20265;-74
2022/10/26 12:14:18;;;;;;;10.52;3.70;;;14.90;99.90;;;;;;5075538;28;20708;-74
2022/10/26 12:17:19;;;;;;;13.82;4.28;;;14.90;99.90;;;;;;5075491;28;20204;-74
2022/10/26 12:19:59;;;;;;;11.77;3.88;;;14.90;99.90;;;;;;5050529;28;20206;-75
2022/10/26 12:22:32;;;;;;;9.63;3.63;;;14.80;99.90;;;;;;5070993;28;20189;-75
2022/10/26 12:25:07;;;;;;;10.43;3.97;;;14.80;99.90;;;;;;5055851;28;20169;-75
2022/10/26 12:27:39;;;;;;;17.90;4.38;;;14.80;99.90;;;;;;5055514;28;20192;-75
2022/10/26 12:30:10;;;;;;;13.95;4.28;;;14.80;99.90;;;;;;5093652;28;20543;-75
2022/10/26 12:32:36;;;;;;;15.65;4.05;;;14.90;99.90;;;;;;5094222;28;20697;-75
2022/10/26 12:38:25;;;;;;;6.97;3.40;;;15.00;99.90;;;;;;5094515;28;20197;-73
2022/10/26 12:41:06;;;;;;;4.30;3.65;;;15.10;99.90;;;;;;5076325;28;20196;-73
2022/10/26 12:43:36;;;;;;;9.02;4.05;;;15.10;99.90;;;;;;5094361;28;20248;-74
2022/10/26 12:46:11;;;;;;;12.00;3.88;;;15.20;99.90;;;;;;5094950;28;20153;-74
2022/10/26 12:48:49;;;;;;;8.48;4.18;;;15.10;99.90;;;;;;5079198;28;20188;-74
2022/10/26 12:51:37;;;;;;;17.13;4.38;;;15.20;99.90;;;;;;5098205;28;20161;-74
2022/10/26 12:54:34;;;;;;;17.50;4.28;;;15.20;99.90;;;;;;5079248;28;20255;-74
2022/10/26 12:57:12;;;;;;;14.40;4.43;;;15.20;99.90;;;;;;5097582;28;20196;-74
2022/10/26 12:59:44;;;;;;;5.47;3.60;;;15.20;99.90;;;;;;5079472;28;20219;-74
2022/10/26 13:02:28;;;;;;;6.20;3.25;;;15.20;99.90;;;;;;5097846;28;20173;-74
2022/10/26 13:05:24;;;;;;;7.45;3.63;;;15.20;99.90;;;;;;5079125;28;20219;-75
2022/10/26 13:07:50;;;;;;;6.78;3.50;;;15.20;99.90;;;;;;5078352;28;20742;-75
2022/10/26 13:10:22;;;;;;;6.80;3.33;;;15.30;99.90;;;;;;5079359;28;20259;-75
2022/10/26 13:13:00;;;;;;;5.15;2.83;;;15.30;99.90;;;;;;5078789;28;20199;-75
2022/10/26 13:15:28;;;;;;;6.60;2.67;;;15.30;99.90;;;;;;5079139;28;20168;-75
2022/10/26 13:18:04;;;;;;;7.18;2.85;;;15.40;99.90;;;;;;5078439;28;20209;-75
2022/10/26 13:20:31;;;;;;;4.25;3.08;;;15.40;99.90;;;;;;5078992;28;20196;-75